sensor_id;sensor_type;location;lat;lon;timestamp;temperature;humidity
34434;DHT22;34290;48.562;13.384;2023-04-06T00:03:30;-1.50;99.90
34434;DHT22;34290;48.562;13.384;2023-04-06T00:10:53;-1.40;99.90
34434;DHT22;34290;48.562;13.384;2023-04-06T00:15:47;-1.70;99.90
34434;DHT22;34290;48.562;13.384;2023-04-06T00:20:43;-1.90;99.90
34434;DHT22;34290;48.562;13.384;2023-04-06T00:23:10;-1.90;99.90
34434;DHT22;34290;48.562;13.384;2023-04-06T00:25:37;-2.00;99.90
34434;DHT22;34290;48.562;13.384;2023-04-06T00:28:04;-2.00;99.90
34434;DHT22;34290;48.562;13.384;2023-04-06T00:30:32;-2.00;99.90
34434;DHT22;34290;48.562;13.384;2023-04-06T00:32:59;-2.10;99.90
34434;DHT22;34290;48.562;13.384;2023-04-06T00:40:22;-2.30;99.90
34434;DHT22;34290;48.562;13.384;2023-04-06T00:42:49;-2.30;99.90
34434;DHT22;34290;48.562;13.384;2023-04-06T00:52:40;-2.40;99.90
34434;DHT22;34290;48.562;13.384;2023-04-06T01:02:30;-2.40;99.90
34434;DHT22;34290;48.562;13.384;2023-04-06T01:07:25;-2.50;99.90
34434;DHT22;34290;48.562;13.384;2023-04-06T01:09:54;-2.50;99.90
34434;DHT22;34290;48.562;13.384;2023-04-06T01:14:49;-2.50;99.90
34434;DHT22;34290;48.562;13.384;2023-04-06T01:19:43;-2.60;99.90
34434;DHT22;34290;48.562;13.384;2023-04-06T01:22:15;-2.70;99.90
34434;DHT22;34290;48.562;13.384;2023-04-06T01:24:43;-2.70;99.90
34434;DHT22;34290;48.562;13.384;2023-04-06T01:32:06;-2.80;99.90
34434;DHT22;34290;48.562;13.384;2023-04-06T01:37:01;-2.90;99.90
34434;DHT22;34290;48.562;13.384;2023-04-06T01:41:57;-3.00;99.90
34434;DHT22;34290;48.562;13.384;2023-04-06T01:54:14;-3.00;99.90
34434;DHT22;34290;48.562;13.384;2023-04-06T01:59:10;-3.00;99.90
34434;DHT22;34290;48.562;13.384;2023-04-06T02:04:04;-3.20;99.90
34434;DHT22;34290;48.562;13.384;2023-04-06T02:08:59;-3.30;99.90
34434;DHT22;34290;48.562;13.384;2023-04-06T02:11:26;-3.30;99.90
34434;DHT22;34290;48.562;13.384;2023-04-06T02:16:22;-3.40;99.90
34434;DHT22;34290;48.562;13.384;2023-04-06T02:26:13;-3.40;99.90
34434;DHT22;34290;48.562;13.384;2023-04-06T02:28:40;-3.50;99.90
34434;DHT22;34290;48.562;13.384;2023-04-06T02:31:09;-3.50;99.90
34434;DHT22;34290;48.562;13.384;2023-04-06T02:33:36;-3.50;99.90
34434;DHT22;34290;48.562;13.384;2023-04-06T02:38:31;-3.50;99.90
34434;DHT22;34290;48.562;13.384;2023-04-06T02:43:25;-3.50;99.90
34434;DHT22;34290;48.562;13.384;2023-04-06T02:48:21;-3.50;99.90
34434;DHT22;34290;48.562;13.384;2023-04-06T02:53:16;-3.60;99.90
34434;DHT22;34290;48.562;13.384;2023-04-06T02:58:10;-3.60;99.90
34434;DHT22;34290;48.562;13.384;2023-04-06T03:00:37;-3.50;99.90
34434;DHT22;34290;48.562;13.384;2023-04-06T03:08:02;-3.50;99.90
34434;DHT22;34290;48.562;13.384;2023-04-06T03:12:56;-4.00;99.90
34434;DHT22;34290;48.562;13.384;2023-04-06T03:17:50;-3.60;99.90
34434;DHT22;34290;48.562;13.384;2023-04-06T03:22:46;-3.80;99.90
34434;DHT22;34290;48.562;13.384;2023-04-06T03:27:41;-3.80;99.90
34434;DHT22;34290;48.562;13.384;2023-04-06T03:30:08;-3.90;99.90
34434;DHT22;34290;48.562;13.384;2023-04-06T03:35:03;-3.60;99.90
34434;DHT22;34290;48.562;13.384;2023-04-06T03:37:30;-4.20;99.90
34434;DHT22;34290;48.562;13.384;2023-04-06T03:39:59;-4.00;99.90
34434;DHT22;34290;48.562;13.384;2023-04-06T03:44:53;-4.10;99.90
34434;DHT22;34290;48.562;13.384;2023-04-06T03:47:20;-4.10;99.90
34434;DHT22;34290;48.562;13.384;2023-04-06T03:49:47;-4.10;99.90
34434;DHT22;34290;48.562;13.384;2023-04-06T03:54:42;-3.90;99.90
34434;DHT22;34290;48.562;13.384;2023-04-06T04:11:54;-4.30;99.90
34434;DHT22;34290;48.562;13.384;2023-04-06T04:14:23;-4.20;99.90
34434;DHT22;34290;48.562;13.384;2023-04-06T04:16:51;-4.30;99.90
34434;DHT22;34290;48.562;13.384;2023-04-06T04:19:18;-4.30;99.90
34434;DHT22;34290;48.562;13.384;2023-04-06T04:24:16;-4.40;99.90
34434;DHT22;34290;48.562;13.384;2023-04-06T04:34:07;-4.20;99.90
34434;DHT22;34290;48.562;13.384;2023-04-06T04:39:01;-4.30;99.90
34434;DHT22;34290;48.562;13.384;2023-04-06T04:41:28;-4.70;99.90
34434;DHT22;34290;48.562;13.384;2023-04-06T04:43:55;-4.50;99.90
34434;DHT22;34290;48.562;13.384;2023-04-06T04:46:22;-3.70;99.90
34434;DHT22;34290;48.562;13.384;2023-04-06T04:48:51;-4.30;99.90
34434;DHT22;34290;48.562;13.384;2023-04-06T04:56:13;-3.50;99.90
34434;DHT22;34290;48.562;13.384;2023-04-06T05:01:08;-3.10;99.90
34434;DHT22;34290;48.562;13.384;2023-04-06T05:03:36;-1.40;99.90
34434;DHT22;34290;48.562;13.384;2023-04-06T05:06:06;-1.00;99.90
34434;DHT22;34290;48.562;13.384;2023-04-06T05:08:33;-0.40;99.90
34434;DHT22;34290;48.562;13.384;2023-04-06T05:13:29;0.50;99.90
34434;DHT22;34290;48.562;13.384;2023-04-06T05:15:57;0.50;99.90
34434;DHT22;34290;48.562;13.384;2023-04-06T05:23:20;2.10;99.90
34434;DHT22;34290;48.562;13.384;2023-04-06T05:25:47;2.70;99.90
34434;DHT22;34290;48.562;13.384;2023-04-06T05:28:14;3.20;99.90
34434;DHT22;34290;48.562;13.384;2023-04-06T05:30:42;3.70;99.90
34434;DHT22;34290;48.562;13.384;2023-04-06T05:33:09;4.50;99.90
34434;DHT22;34290;48.562;13.384;2023-04-06T05:35:36;4.80;99.90
34434;DHT22;34290;48.562;13.384;2023-04-06T05:40:32;6.30;99.70
34434;DHT22;34290;48.562;13.384;2023-04-06T05:42:59;6.50;98.20
34434;DHT22;34290;48.562;13.384;2023-04-06T05:45:26;6.50;97.40
34434;DHT22;34290;48.562;13.384;2023-04-06T05:47:53;6.40;97.40
34434;DHT22;34290;48.562;13.384;2023-04-06T05:50:20;6.50;96.80
34434;DHT22;34290;48.562;13.384;2023-04-06T05:52:48;7.50;96.20
34434;DHT22;34290;48.562;13.384;2023-04-06T05:55:15;8.10;95.20
34434;DHT22;34290;48.562;13.384;2023-04-06T05:57:43;8.10;94.10
34434;DHT22;34290;48.562;13.384;2023-04-06T06:00:12;8.50;94.00
34434;DHT22;34290;48.562;13.384;2023-04-06T06:02:40;9.20;93.20
34434;DHT22;34290;48.562;13.384;2023-04-06T06:05:08;9.60;92.30
34434;DHT22;34290;48.562;13.384;2023-04-06T06:07:36;9.40;92.50
34434;DHT22;34290;48.562;13.384;2023-04-06T06:10:03;10.30;92.20
34434;DHT22;34290;48.562;13.384;2023-04-06T06:14:59;11.70;89.10
34434;DHT22;34290;48.562;13.384;2023-04-06T06:19:53;12.20;87.60
34434;DHT22;34290;48.562;13.384;2023-04-06T06:24:48;13.10;85.30
34434;DHT22;34290;48.562;13.384;2023-04-06T06:27:15;13.20;83.30
34434;DHT22;34290;48.562;13.384;2023-04-06T06:29:42;13.50;81.30
34434;DHT22;34290;48.562;13.384;2023-04-06T06:34:38;13.60;80.50
34434;DHT22;34290;48.562;13.384;2023-04-06T06:42:00;13.50;79.20
34434;DHT22;34290;48.562;13.384;2023-04-06T06:46:54;13.30;80.70
34434;DHT22;34290;48.562;13.384;2023-04-06T06:49:23;14.40;78.20
34434;DHT22;34290;48.562;13.384;2023-04-06T06:51:50;14.90;77.10
34434;DHT22;34290;48.562;13.384;2023-04-06T06:54:17;15.40;76.20
34434;DHT22;34290;48.562;13.384;2023-04-06T06:56:44;15.30;77.10
34434;DHT22;34290;48.562;13.384;2023-04-06T06:59:11;16.10;76.30
34434;DHT22;34290;48.562;13.384;2023-04-06T07:04:05;16.50;73.70
34434;DHT22;34290;48.562;13.384;2023-04-06T07:06:35;16.40;74.30
34434;DHT22;34290;48.562;13.384;2023-04-06T07:09:02;15.60;71.80
34434;DHT22;34290;48.562;13.384;2023-04-06T07:11:30;15.50;73.60
34434;DHT22;34290;48.562;13.384;2023-04-06T07:13:57;14.90;72.70
34434;DHT22;34290;48.562;13.384;2023-04-06T07:16:24;15.20;73.10
34434;DHT22;34290;48.562;13.384;2023-04-06T07:18:51;15.40;71.90
34434;DHT22;34290;48.562;13.384;2023-04-06T07:21:18;16.30;72.10
34434;DHT22;34290;48.562;13.384;2023-04-06T07:23:46;16.20;72.30
34434;DHT22;34290;48.562;13.384;2023-04-06T07:26:14;16.30;71.70
34434;DHT22;34290;48.562;13.384;2023-04-06T07:28:41;16.20;70.20
34434;DHT22;34290;48.562;13.384;2023-04-06T07:31:08;16.60;70.90
34434;DHT22;34290;48.562;13.384;2023-04-06T07:33:36;16.30;69.80
34434;DHT22;34290;48.562;13.384;2023-04-06T07:36:03;17.10;68.80
34434;DHT22;34290;48.562;13.384;2023-04-06T07:38:30;16.70;75.30
34434;DHT22;34290;48.562;13.384;2023-04-06T07:40:59;16.10;69.30
34434;DHT22;34290;48.562;13.384;2023-04-06T07:43:28;16.30;69.50
34434;DHT22;34290;48.562;13.384;2023-04-06T07:45:56;17.00;68.80
34434;DHT22;34290;48.562;13.384;2023-04-06T07:48:23;18.20;71.70
34434;DHT22;34290;48.562;13.384;2023-04-06T07:50:50;18.20;68.80
34434;DHT22;34290;48.562;13.384;2023-04-06T07:53:17;17.80;67.40
34434;DHT22;34290;48.562;13.384;2023-04-06T07:55:44;18.20;67.40
34434;DHT22;34290;48.562;13.384;2023-04-06T07:58:12;18.50;66.80
34434;DHT22;34290;48.562;13.384;2023-04-06T08:00:40;19.40;64.50
34434;DHT22;34290;48.562;13.384;2023-04-06T08:03:07;20.20;63.70
34434;DHT22;34290;48.562;13.384;2023-04-06T08:05:34;20.80;63.30
34434;DHT22;34290;48.562;13.384;2023-04-06T08:08:01;21.00;60.10
34434;DHT22;34290;48.562;13.384;2023-04-06T08:12:55;20.60;58.70
34434;DHT22;34290;48.562;13.384;2023-04-06T08:17:51;19.80;59.30
34434;DHT22;34290;48.562;13.384;2023-04-06T08:22:46;20.10;57.90
34434;DHT22;34290;48.562;13.384;2023-04-06T08:25:13;20.20;59.00
34434;DHT22;34290;48.562;13.384;2023-04-06T08:27:40;20.50;58.60
34434;DHT22;34290;48.562;13.384;2023-04-06T08:30:08;20.90;57.40
34434;DHT22;34290;48.562;13.384;2023-04-06T08:32:36;21.50;58.60
34434;DHT22;34290;48.562;13.384;2023-04-06T08:35:04;21.00;55.30
34434;DHT22;34290;48.562;13.384;2023-04-06T08:37:31;19.50;56.80
34434;DHT22;34290;48.562;13.384;2023-04-06T08:39:58;19.10;57.30
34434;DHT22;34290;48.562;13.384;2023-04-06T08:42:26;17.60;58.80
34434;DHT22;34290;48.562;13.384;2023-04-06T08:47:22;17.80;59.50
34434;DHT22;34290;48.562;13.384;2023-04-06T08:52:19;18.50;58.80
34434;DHT22;34290;48.562;13.384;2023-04-06T08:54:48;18.50;60.30
34434;DHT22;34290;48.562;13.384;2023-04-06T08:59:43;17.50;57.80
34434;DHT22;34290;48.562;13.384;2023-04-06T09:09:41;19.90;57.60
34434;DHT22;34290;48.562;13.384;2023-04-06T09:17:21;18.40;55.90
34434;DHT22;34290;48.562;13.384;2023-04-06T09:19:48;19.00;57.40
34434;DHT22;34290;48.562;13.384;2023-04-06T09:22:17;17.80;56.50
34434;DHT22;34290;48.562;13.384;2023-04-06T09:24:47;16.70;59.10
34434;DHT22;34290;48.562;13.384;2023-04-06T09:32:10;17.40;57.80
34434;DHT22;34290;48.562;13.384;2023-04-06T09:34:38;16.20;58.00
34434;DHT22;34290;48.562;13.384;2023-04-06T09:39:43;12.60;64.00
34434;DHT22;34290;48.562;13.384;2023-04-06T09:42:12;12.90;64.10
34434;DHT22;34290;48.562;13.384;2023-04-06T09:49:34;12.90;63.50
34434;DHT22;34290;48.562;13.384;2023-04-06T09:52:03;13.10;63.00
34434;DHT22;34290;48.562;13.384;2023-04-06T09:57:05;13.00;64.00
34434;DHT22;34290;48.562;13.384;2023-04-06T09:59:40;12.50;64.40
34434;DHT22;34290;48.562;13.384;2023-04-06T10:07:11;12.20;63.10
34434;DHT22;34290;48.562;13.384;2023-04-06T10:09:38;11.50;63.70
34434;DHT22;34290;48.562;13.384;2023-04-06T10:12:07;11.00;64.00
34434;DHT22;34290;48.562;13.384;2023-04-06T10:14:35;10.50;64.80
34434;DHT22;34290;48.562;13.384;2023-04-06T10:17:03;10.20;65.30
34434;DHT22;34290;48.562;13.384;2023-04-06T10:22:03;9.40;68.10
34434;DHT22;34290;48.562;13.384;2023-04-06T10:27:01;10.30;67.60
34434;DHT22;34290;48.562;13.384;2023-04-06T10:34:36;14.70;62.80
34434;DHT22;34290;48.562;13.384;2023-04-06T10:47:18;16.50;58.70
34434;DHT22;34290;48.562;13.384;2023-04-06T10:57:10;12.50;63.70
34434;DHT22;34290;48.562;13.384;2023-04-06T10:59:44;12.70;62.20
34434;DHT22;34290;48.562;13.384;2023-04-06T11:04:54;13.20;61.40
34434;DHT22;34290;48.562;13.384;2023-04-06T11:07:27;13.30;61.50
34434;DHT22;34290;48.562;13.384;2023-04-06T11:14:57;16.10;62.00
34434;DHT22;34290;48.562;13.384;2023-04-06T11:17:28;17.10;60.90
34434;DHT22;34290;48.562;13.384;2023-04-06T11:22:23;16.40;58.80
34434;DHT22;34290;48.562;13.384;2023-04-06T11:29:46;16.90;57.60
34434;DHT22;34290;48.562;13.384;2023-04-06T11:32:22;15.70;57.80
34434;DHT22;34290;48.562;13.384;2023-04-06T11:34:50;15.30;61.80
34434;DHT22;34290;48.562;13.384;2023-04-06T11:37:17;14.60;59.50
34434;DHT22;34290;48.562;13.384;2023-04-06T11:39:47;14.10;59.20
34434;DHT22;34290;48.562;13.384;2023-04-06T11:42:26;13.80;61.90
34434;DHT22;34290;48.562;13.384;2023-04-06T11:49:55;14.30;61.40
34434;DHT22;34290;48.562;13.384;2023-04-06T11:52:26;13.80;60.30
34434;DHT22;34290;48.562;13.384;2023-04-06T11:54:54;13.60;63.60
34434;DHT22;34290;48.562;13.384;2023-04-06T12:02:18;14.20;64.40
34434;DHT22;34290;48.562;13.384;2023-04-06T12:07:14;13.70;60.80
34434;DHT22;34290;48.562;13.384;2023-04-06T12:12:09;13.20;61.70
34434;DHT22;34290;48.562;13.384;2023-04-06T12:14:36;13.40;62.70
34434;DHT22;34290;48.562;13.384;2023-04-06T12:17:03;13.20;60.10
34434;DHT22;34290;48.562;13.384;2023-04-06T12:21:59;13.20;59.80
34434;DHT22;34290;48.562;13.384;2023-04-06T12:34:15;13.00;63.30
34434;DHT22;34290;48.562;13.384;2023-04-06T12:39:11;12.40;66.50
34434;DHT22;34290;48.562;13.384;2023-04-06T12:46:34;12.70;64.30
34434;DHT22;34290;48.562;13.384;2023-04-06T12:49:02;12.80;64.70
34434;DHT22;34290;48.562;13.384;2023-04-06T12:51:29;12.70;62.50
34434;DHT22;34290;48.562;13.384;2023-04-06T12:56:25;12.50;66.20
34434;DHT22;34290;48.562;13.384;2023-04-06T13:01:24;12.40;63.50
34434;DHT22;34290;48.562;13.384;2023-04-06T13:06:20;12.10;65.40
34434;DHT22;34290;48.562;13.384;2023-04-06T13:13:44;12.00;65.70
34434;DHT22;34290;48.562;13.384;2023-04-06T13:18:38;12.10;66.50
34434;DHT22;34290;48.562;13.384;2023-04-06T13:23:33;11.90;62.10
34434;DHT22;34290;48.562;13.384;2023-04-06T13:26:02;11.80;64.50
34434;DHT22;34290;48.562;13.384;2023-04-06T13:30:59;11.80;64.60
34434;DHT22;34290;48.562;13.384;2023-04-06T13:33:27;11.70;64.30
34434;DHT22;34290;48.562;13.384;2023-04-06T13:38:21;11.30;61.00
34434;DHT22;34290;48.562;13.384;2023-04-06T13:43:17;11.20;64.00
34434;DHT22;34290;48.562;13.384;2023-04-06T13:48:17;11.50;65.70
34434;DHT22;34290;48.562;13.384;2023-04-06T13:53:12;11.60;61.80
34434;DHT22;34290;48.562;13.384;2023-04-06T13:55:39;11.60;63.90
34434;DHT22;34290;48.562;13.384;2023-04-06T14:00:34;11.20;63.50
34434;DHT22;34290;48.562;13.384;2023-04-06T14:08:00;10.90;62.40
34434;DHT22;34290;48.562;13.384;2023-04-06T14:12:54;11.00;63.10
34434;DHT22;34290;48.562;13.384;2023-04-06T14:22:46;10.60;64.80
34434;DHT22;34290;48.562;13.384;2023-04-06T14:25:15;10.70;66.80
34434;DHT22;34290;48.562;13.384;2023-04-06T14:30:10;10.50;65.90
34434;DHT22;34290;48.562;13.384;2023-04-06T14:37:33;10.60;63.40
34434;DHT22;34290;48.562;13.384;2023-04-06T14:40:01;10.60;63.00
34434;DHT22;34290;48.562;13.384;2023-04-06T14:42:28;10.10;63.50
34434;DHT22;34290;48.562;13.384;2023-04-06T14:44:55;10.70;63.20
34434;DHT22;34290;48.562;13.384;2023-04-06T14:52:17;10.50;62.20
34434;DHT22;34290;48.562;13.384;2023-04-06T14:54:45;10.40;61.90
34434;DHT22;34290;48.562;13.384;2023-04-06T14:57:13;10.20;60.40
34434;DHT22;34290;48.562;13.384;2023-04-06T15:02:07;10.10;62.90
34434;DHT22;34290;48.562;13.384;2023-04-06T15:07:02;10.00;61.40
34434;DHT22;34290;48.562;13.384;2023-04-06T15:16:52;10.00;63.70
34434;DHT22;34290;48.562;13.384;2023-04-06T15:19:19;10.00;64.20
34434;DHT22;34290;48.562;13.384;2023-04-06T15:21:46;10.00;64.10
34434;DHT22;34290;48.562;13.384;2023-04-06T15:26:40;9.90;63.40
34434;DHT22;34290;48.562;13.384;2023-04-06T15:31:36;9.80;65.00
34434;DHT22;34290;48.562;13.384;2023-04-06T15:34:04;9.80;65.70
34434;DHT22;34290;48.562;13.384;2023-04-06T15:39:01;9.80;65.10
34434;DHT22;34290;48.562;13.384;2023-04-06T15:41:28;9.70;63.80
34434;DHT22;34290;48.562;13.384;2023-04-06T15:46:23;9.60;64.70
34434;DHT22;34290;48.562;13.384;2023-04-06T15:48:53;9.60;65.00
34434;DHT22;34290;48.562;13.384;2023-04-06T15:56:15;9.40;64.40
34434;DHT22;34290;48.562;13.384;2023-04-06T15:58:42;9.40;64.20
34434;DHT22;34290;48.562;13.384;2023-04-06T16:06:07;9.30;64.80
34434;DHT22;34290;48.562;13.384;2023-04-06T16:13:29;9.20;65.40
34434;DHT22;34290;48.562;13.384;2023-04-06T16:18:24;9.10;65.70
34434;DHT22;34290;48.562;13.384;2023-04-06T16:20:51;9.10;66.20
34434;DHT22;34290;48.562;13.384;2023-04-06T16:23:20;9.00;67.00
34434;DHT22;34290;48.562;13.384;2023-04-06T16:30:42;8.80;68.40
34434;DHT22;34290;48.562;13.384;2023-04-06T16:33:10;8.80;69.70
34434;DHT22;34290;48.562;13.384;2023-04-06T16:35:42;8.70;69.60
34434;DHT22;34290;48.562;13.384;2023-04-06T16:40:38;8.70;69.70
34434;DHT22;34290;48.562;13.384;2023-04-06T16:48:01;8.40;69.90
34434;DHT22;34290;48.562;13.384;2023-04-06T16:50:28;8.50;70.90
34434;DHT22;34290;48.562;13.384;2023-04-06T16:52:55;8.40;70.20
34434;DHT22;34290;48.562;13.384;2023-04-06T16:57:54;8.30;70.50
34434;DHT22;34290;48.562;13.384;2023-04-06T17:05:15;8.00;71.40
34434;DHT22;34290;48.562;13.384;2023-04-06T17:15:10;7.70;72.20
34434;DHT22;34290;48.562;13.384;2023-04-06T17:20:06;7.60;72.70
34434;DHT22;34290;48.562;13.384;2023-04-06T17:22:33;7.50;72.70
34434;DHT22;34290;48.562;13.384;2023-04-06T17:34:54;7.20;72.80
34434;DHT22;34290;48.562;13.384;2023-04-06T17:39:48;7.00;73.40
34434;DHT22;34290;48.562;13.384;2023-04-06T17:49:40;6.30;78.80
34434;DHT22;34290;48.562;13.384;2023-04-06T17:54:35;6.00;79.50
34434;DHT22;34290;48.562;13.384;2023-04-06T17:57:02;6.00;79.90
34434;DHT22;34290;48.562;13.384;2023-04-06T18:01:59;5.90;80.90
34434;DHT22;34290;48.562;13.384;2023-04-06T18:06:59;5.60;83.50
34434;DHT22;34290;48.562;13.384;2023-04-06T18:11:53;5.00;85.50
34434;DHT22;34290;48.562;13.384;2023-04-06T18:14:21;4.90;87.80
34434;DHT22;34290;48.562;13.384;2023-04-06T18:19:15;4.50;89.00
34434;DHT22;34290;48.562;13.384;2023-04-06T18:24:11;4.30;90.60
34434;DHT22;34290;48.562;13.384;2023-04-06T18:26:38;4.20;90.90
34434;DHT22;34290;48.562;13.384;2023-04-06T18:29:05;4.90;91.40
34434;DHT22;34290;48.562;13.384;2023-04-06T18:31:32;3.90;91.50
34434;DHT22;34290;48.562;13.384;2023-04-06T18:36:28;3.70;92.10
34434;DHT22;34290;48.562;13.384;2023-04-06T18:38:55;3.50;92.70
34434;DHT22;34290;48.562;13.384;2023-04-06T18:41:24;3.40;92.90
34434;DHT22;34290;48.562;13.384;2023-04-06T18:46:18;3.30;92.90
34434;DHT22;34290;48.562;13.384;2023-04-06T18:51:12;3.10;93.70
34434;DHT22;34290;48.562;13.384;2023-04-06T19:01:19;2.70;95.10
34434;DHT22;34290;48.562;13.384;2023-04-06T19:03:46;2.60;95.70
34434;DHT22;34290;48.562;13.384;2023-04-06T19:08:41;2.40;96.60
34434;DHT22;34290;48.562;13.384;2023-04-06T19:13:35;2.20;96.70
34434;DHT22;34290;48.562;13.384;2023-04-06T19:16:08;2.00;98.10
34434;DHT22;34290;48.562;13.384;2023-04-06T19:18:35;1.90;97.60
34434;DHT22;34290;48.562;13.384;2023-04-06T19:23:30;2.00;98.40
34434;DHT22;34290;48.562;13.384;2023-04-06T19:30:51;1.70;99.50
34434;DHT22;34290;48.562;13.384;2023-04-06T19:38:14;1.40;99.90
34434;DHT22;34290;48.562;13.384;2023-04-06T19:43:08;1.20;99.90
34434;DHT22;34290;48.562;13.384;2023-04-06T19:48:02;1.10;99.90
34434;DHT22;34290;48.562;13.384;2023-04-06T19:52:58;1.00;99.90
34434;DHT22;34290;48.562;13.384;2023-04-06T19:57:54;0.90;99.90
34434;DHT22;34290;48.562;13.384;2023-04-06T20:02:49;0.80;99.90
34434;DHT22;34290;48.562;13.384;2023-04-06T20:07:44;0.80;99.90
34434;DHT22;34290;48.562;13.384;2023-04-06T20:17:35;0.70;99.90
34434;DHT22;34290;48.562;13.384;2023-04-06T20:20:03;0.80;99.90
34434;DHT22;34290;48.562;13.384;2023-04-06T20:24:59;1.00;99.90
34434;DHT22;34290;48.562;13.384;2023-04-06T20:27:26;0.90;99.90
34434;DHT22;34290;48.562;13.384;2023-04-06T20:34:48;0.10;99.90
34434;DHT22;34290;48.562;13.384;2023-04-06T20:37:15;0.00;99.90
34434;DHT22;34290;48.562;13.384;2023-04-06T20:42:11;-0.30;99.90
34434;DHT22;34290;48.562;13.384;2023-04-06T20:47:06;-0.30;99.90
34434;DHT22;34290;48.562;13.384;2023-04-06T20:52:00;-0.40;99.90
34434;DHT22;34290;48.562;13.384;2023-04-06T20:54:27;1.10;99.90
34434;DHT22;34290;48.562;13.384;2023-04-06T21:01:53;-0.40;99.90
34434;DHT22;34290;48.562;13.384;2023-04-06T21:06:47;-0.60;99.90
34434;DHT22;34290;48.562;13.384;2023-04-06T21:14:09;-0.30;99.90
34434;DHT22;34290;48.562;13.384;2023-04-06T21:16:37;-0.30;99.90
34434;DHT22;34290;48.562;13.384;2023-04-06T21:23:59;-0.60;99.90
34434;DHT22;34290;48.562;13.384;2023-04-06T21:26:27;-0.70;99.90
34434;DHT22;34290;48.562;13.384;2023-04-06T21:31:23;-0.90;99.90
34434;DHT22;34290;48.562;13.384;2023-04-06T21:33:52;-0.90;99.90
34434;DHT22;34290;48.562;13.384;2023-04-06T21:38:46;-1.10;99.90
34434;DHT22;34290;48.562;13.384;2023-04-06T21:41:13;-1.10;99.90
34434;DHT22;34290;48.562;13.384;2023-04-06T21:43:40;-1.30;99.90
34434;DHT22;34290;48.562;13.384;2023-04-06T21:53:30;-1.50;99.90
34434;DHT22;34290;48.562;13.384;2023-04-06T22:00:52;-1.60;99.90
34434;DHT22;34290;48.562;13.384;2023-04-06T22:05:46;-1.50;99.90
34434;DHT22;34290;48.562;13.384;2023-04-06T22:08:15;-1.50;99.90
34434;DHT22;34290;48.562;13.384;2023-04-06T22:18:04;-1.60;99.90
34434;DHT22;34290;48.562;13.384;2023-04-06T22:27:57;-1.70;99.90
34434;DHT22;34290;48.562;13.384;2023-04-06T22:32:52;-1.70;99.90
34434;DHT22;34290;48.562;13.384;2023-04-06T22:35:19;-1.80;99.90
34434;DHT22;34290;48.562;13.384;2023-04-06T23:04:52;-2.10;99.90
34434;DHT22;34290;48.562;13.384;2023-04-06T23:14:41;-2.10;99.90
34434;DHT22;34290;48.562;13.384;2023-04-06T23:17:09;-2.10;99.90
34434;DHT22;34290;48.562;13.384;2023-04-06T23:19:36;-2.20;99.90
34434;DHT22;34290;48.562;13.384;2023-04-06T23:24:31;-2.20;99.90
34434;DHT22;34290;48.562;13.384;2023-04-06T23:29:25;-2.40;99.90
34434;DHT22;34290;48.562;13.384;2023-04-06T23:39:15;-2.50;99.90
34434;DHT22;34290;48.562;13.384;2023-04-06T23:44:10;-2.40;99.90
34434;DHT22;34290;48.562;13.384;2023-04-06T23:54:00;-2.60;99.90
34434;DHT22;34290;48.562;13.384;2023-04-06T23:58:54;-2.70;99.90
